Time;durP1;ratioP1;P1;durP2;ratioP2;P2;SDS_P1;SDS_P2;PMS_P1;PMS_P2;Temp;Humidity;BMP_temperature;BMP_pressure;BME280_temperature;BME280_humidity;BME280_pressure;Samples;Min_cycle;Max_cycle;Signal;HPM_P1;HPM_P2
2022/07/17 00:00:14;;;;;;;4.23;2.97;;;16.40;52.30;;;;;;4989245;28;20185;-60
2022/07/17 00:02:40;;;;;;;8.43;3.20;;;16.40;52.60;;;;;;4986450;28;20188;-61
2022/07/17 00:05:06;;;;;;;6.73;2.90;;;16.40;52.70;;;;;;4988527;28;20427;-61
2022/07/17 00:07:32;;;;;;;4.90;3.00;;;16.40;52.80;;;;;;4988908;28;20232;-61
2022/07/17 00:09:57;;;;;;;8.50;3.37;;;16.40;52.70;;;;;;4987969;28;21095;-61
2022/07/17 00:12:23;;;;;;;5.30;3.77;;;16.30;52.80;;;;;;4987759;28;20271;-61
2022/07/17 00:14:49;;;;;;;4.57;3.13;;;16.30;52.80;;;;;;4988137;28;20908;-61
2022/07/17 00:17:14;;;;;;;3.50;3.07;;;16.20;52.80;;;;;;4987877;28;20204;-61
2022/07/17 00:19:40;;;;;;;4.33;3.60;;;16.20;53.10;;;;;;4985624;28;20650;-61
2022/07/17 00:22:06;;;;;;;4.00;3.27;;;16.10;53.30;;;;;;4988719;28;20192;-61
2022/07/17 00:24:32;;;;;;;7.37;3.87;;;16.00;53.30;;;;;;4987545;28;20441;-61
2022/07/17 00:26:58;;;;;;;8.23;3.50;;;16.00;53.50;;;;;;4989264;28;20468;-61
2022/07/17 00:29:24;;;;;;;7.40;4.10;;;16.00;53.70;;;;;;4982523;28;20188;-61
2022/07/17 00:31:49;;;;;;;5.87;3.83;;;16.00;53.80;;;;;;4986958;28;20201;-61
2022/07/17 00:34:15;;;;;;;4.77;4.20;;;15.90;53.70;;;;;;4986064;28;20188;-61
2022/07/17 00:36:42;;;;;;;10.30;4.20;;;15.90;53.80;;;;;;4992475;28;20292;-61
2022/07/17 00:39:08;;;;;;;3.67;3.37;;;15.80;53.90;;;;;;4987770;28;20182;-61
2022/07/17 00:41:34;;;;;;;6.60;3.30;;;15.70;54.00;;;;;;4988176;28;20624;-61
2022/07/17 00:44:05;;;;;;;8.20;3.60;;;15.70;54.40;;;;;;4988506;28;20448;-61
2022/07/17 00:46:31;;;;;;;8.40;3.43;;;15.60;54.60;;;;;;4986645;28;20459;-61
2022/07/17 00:48:57;;;;;;;6.50;3.60;;;15.60;54.70;;;;;;4990640;28;20440;-60
2022/07/17 00:51:22;;;;;;;9.00;4.63;;;15.60;54.80;;;;;;4989463;28;20189;-60
2022/07/17 00:53:51;;;;;;;5.97;4.17;;;15.60;54.70;;;;;;4985845;28;20201;-61
2022/07/17 00:56:17;;;;;;;8.20;4.20;;;15.60;54.90;;;;;;4991737;28;20216;-61
2022/07/17 00:58:44;;;;;;;6.63;3.53;;;15.60;55.00;;;;;;4986290;28;20486;-60
2022/07/17 01:01:10;;;;;;;4.87;3.67;;;15.50;55.00;;;;;;4983734;28;21415;-61
2022/07/17 01:03:36;;;;;;;4.10;3.63;;;15.50;55.20;;;;;;4986248;28;20432;-61
2022/07/17 01:06:03;;;;;;;4.73;3.30;;;15.50;55.20;;;;;;4986674;28;20461;-60
2022/07/17 01:08:29;;;;;;;6.23;3.90;;;15.40;55.20;;;;;;4984285;28;20961;-61
2022/07/17 01:10:55;;;;;;;5.53;3.40;;;15.40;55.50;;;;;;4977343;28;20433;-60
2022/07/17 01:13:21;;;;;;;5.93;3.60;;;15.40;55.50;;;;;;4992910;28;20462;-61
2022/07/17 01:15:46;;;;;;;4.27;3.63;;;15.40;55.50;;;;;;4987892;28;20197;-60
2022/07/17 01:18:13;;;;;;;3.80;3.20;;;15.30;55.60;;;;;;4992471;28;20534;-61
2022/07/17 01:20:41;;;;;;;3.90;3.50;;;15.30;55.70;;;;;;4994083;28;20177;-61
2022/07/17 01:23:08;;;;;;;4.97;3.43;;;15.30;55.70;;;;;;4993154;28;20451;-61
2022/07/17 01:25:35;;;;;;;4.73;3.20;;;15.30;55.80;;;;;;4985067;28;20437;-61
2022/07/17 01:28:01;;;;;;;5.70;4.27;;;15.20;56.00;;;;;;4990384;28;20435;-60
2022/07/17 01:30:27;;;;;;;3.50;3.20;;;15.20;56.20;;;;;;4993792;28;20543;-61
2022/07/17 01:32:53;;;;;;;4.20;3.80;;;15.10;56.20;;;;;;4985764;28;20472;-60
2022/07/17 01:35:19;;;;;;;4.03;3.63;;;15.10;56.30;;;;;;4991063;28;20432;-63
2022/07/17 01:37:45;;;;;;;4.37;3.40;;;15.00;56.60;;;;;;4988929;28;20170;-60
2022/07/17 01:40:13;;;;;;;4.03;3.70;;;15.00;56.80;;;;;;4994514;28;20435;-61
2022/07/17 01:42:41;;;;;;;5.20;3.93;;;15.00;57.10;;;;;;4987565;28;20208;-61
2022/07/17 01:45:08;;;;;;;4.20;3.80;;;14.90;57.30;;;;;;4984630;28;20433;-61
2022/07/17 01:47:34;;;;;;;4.40;3.60;;;14.90;57.50;;;;;;4993622;28;20460;-60
2022/07/17 01:50:02;;;;;;;5.87;3.73;;;14.90;57.70;;;;;;4986810;28;20472;-61
2022/07/17 01:52:28;;;;;;;6.10;4.20;;;14.90;57.80;;;;;;4990309;28;20471;-61
2022/07/17 01:54:53;;;;;;;4.20;3.80;;;14.80;57.90;;;;;;4989476;28;20968;-61
2022/07/17 01:57:20;;;;;;;5.00;3.90;;;14.80;58.20;;;;;;4993680;28;20204;-61
2022/07/17 01:59:46;;;;;;;3.77;3.43;;;14.70;58.30;;;;;;4993274;28;20439;-60
2022/07/17 02:02:15;;;;;;;5.63;3.97;;;14.70;58.40;;;;;;4987118;28;20449;-61
2022/07/17 02:04:41;;;;;;;4.63;3.90;;;14.70;58.60;;;;;;4989874;28;20854;-61
2022/07/17 02:07:08;;;;;;;4.83;3.60;;;14.70;58.70;;;;;;4983046;28;20641;-61
2022/07/17 02:09:34;;;;;;;7.00;4.00;;;14.60;58.80;;;;;;4988762;28;20539;-61
2022/07/17 02:12:00;;;;;;;8.00;3.37;;;14.60;58.90;;;;;;4986866;28;20857;-61
2022/07/17 02:14:25;;;;;;;6.93;3.80;;;14.60;59.10;;;;;;4986504;28;20730;-60
2022/07/17 02:16:51;;;;;;;8.83;4.47;;;14.60;59.30;;;;;;4991353;28;20864;-61
2022/07/17 02:19:17;;;;;;;3.60;3.30;;;14.60;59.50;;;;;;4986396;28;20197;-61
2022/07/17 02:21:43;;;;;;;3.70;3.40;;;14.50;59.30;;;;;;4992243;28;20281;-61
2022/07/17 02:24:08;;;;;;;4.33;3.93;;;14.50;59.50;;;;;;4973844;28;20220;-61
2022/07/17 02:26:34;;;;;;;4.03;3.70;;;14.40;59.70;;;;;;4989094;28;20617;-61
2022/07/17 02:28:59;;;;;;;5.30;4.00;;;14.40;59.90;;;;;;4989306;28;20188;-61
2022/07/17 02:31:25;;;;;;;4.87;3.63;;;14.40;60.20;;;;;;4976204;28;20562;-62
2022/07/17 02:33:51;;;;;;;4.80;4.10;;;14.30;60.40;;;;;;4990720;28;20604;-61
2022/07/17 02:36:17;;;;;;;10.93;3.80;;;14.30;60.60;;;;;;4990849;28;20201;-63
2022/07/17 02:38:42;;;;;;;7.53;4.17;;;14.30;60.80;;;;;;4981771;28;20224;-61
2022/07/17 02:41:08;;;;;;;7.90;4.83;;;14.30;60.90;;;;;;4984980;28;20243;-61
2022/07/17 02:43:34;;;;;;;5.43;3.97;;;14.30;61.30;;;;;;4990571;28;20193;-61
2022/07/17 02:46:00;;;;;;;5.27;3.70;;;14.30;61.40;;;;;;4987404;28;20207;-60
2022/07/17 02:48:26;;;;;;;4.43;3.93;;;14.20;61.40;;;;;;4988661;28;20275;-60
2022/07/17 02:50:52;;;;;;;5.73;4.13;;;14.20;61.50;;;;;;4992601;28;20474;-61
2022/07/17 02:53:17;;;;;;;7.83;4.33;;;14.20;61.80;;;;;;4987440;28;20201;-60
2022/07/17 02:55:43;;;;;;;5.47;3.80;;;14.20;62.10;;;;;;4987357;28;20197;-60
2022/07/17 02:58:08;;;;;;;7.10;4.43;;;14.10;62.00;;;;;;4989564;28;20180;-61
2022/07/17 03:00:34;;;;;;;5.13;4.27;;;14.10;62.70;;;;;;5001229;28;20183;-61
2022/07/17 03:03:00;;;;;;;4.73;4.20;;;14.10;62.80;;;;;;4999193;28;21195;-61
2022/07/17 03:05:25;;;;;;;5.50;4.10;;;14.00;62.60;;;;;;4988867;28;20248;-61
2022/07/17 03:07:51;;;;;;;5.93;4.50;;;14.00;63.00;;;;;;4996218;28;20169;-61
2022/07/17 03:10:17;;;;;;;5.63;3.70;;;14.00;63.00;;;;;;4995263;28;20181;-61
2022/07/17 03:12:43;;;;;;;5.30;3.73;;;14.00;63.20;;;;;;4990735;28;21007;-61
2022/07/17 03:15:10;;;;;;;7.20;4.07;;;13.90;63.30;;;;;;4991298;28;20173;-61
2022/07/17 03:17:37;;;;;;;4.90;4.40;;;13.90;63.80;;;;;;4989843;28;21143;-61
2022/07/17 03:20:03;;;;;;;4.47;4.03;;;13.90;63.90;;;;;;4989710;28;20432;-61
2022/07/17 03:22:29;;;;;;;5.60;3.87;;;13.90;64.30;;;;;;4988530;28;20515;-61
2022/07/17 03:24:55;;;;;;;8.37;4.10;;;13.90;64.80;;;;;;4988748;28;20527;-61
2022/07/17 03:27:20;;;;;;;4.63;3.93;;;13.90;64.20;;;;;;4987297;28;20209;-60
2022/07/17 03:29:46;;;;;;;4.77;3.63;;;14.00;64.50;;;;;;4988983;28;20192;-60
2022/07/17 03:32:13;;;;;;;5.57;4.60;;;13.90;64.60;;;;;;4987052;28;20207;-61
2022/07/17 03:34:38;;;;;;;5.20;4.30;;;13.80;64.60;;;;;;4984680;28;20173;-62
2022/07/17 03:37:05;;;;;;;5.63;3.57;;;13.80;65.00;;;;;;4982848;28;20543;-60
2022/07/17 03:39:31;;;;;;;7.30;4.00;;;13.70;65.50;;;;;;4986138;28;20537;-61
2022/07/17 03:41:57;;;;;;;4.90;4.27;;;13.70;65.80;;;;;;4987707;28;20646;-60
2022/07/17 03:44:23;;;;;;;8.20;4.47;;;13.60;66.20;;;;;;4988042;28;20200;-61
2022/07/17 03:46:49;;;;;;;6.27;4.60;;;13.60;66.90;;;;;;4984897;28;20197;-60
2022/07/17 03:49:15;;;;;;;6.27;4.07;;;13.60;67.40;;;;;;4986717;28;20192;-60
2022/07/17 03:51:40;;;;;;;6.87;4.60;;;13.50;67.80;;;;;;4996113;28;20431;-60
2022/07/17 03:54:06;;;;;;;6.20;4.40;;;13.50;68.10;;;;;;4989605;28;20471;-61
2022/07/17 03:56:32;;;;;;;5.87;4.03;;;13.50;68.20;;;;;;4988536;28;20690;-61
2022/07/17 03:58:58;;;;;;;6.10;4.90;;;13.40;68.60;;;;;;4984686;28;20479;-61
2022/07/17 04:01:23;;;;;;;5.30;4.33;;;13.40;69.20;;;;;;4988893;28;20177;-61
2022/07/17 04:03:49;;;;;;;7.33;5.07;;;13.40;69.20;;;;;;4984427;28;20191;-60
2022/07/17 04:06:15;;;;;;;6.10;4.73;;;13.40;69.80;;;;;;4986416;28;20291;-61
2022/07/17 04:08:40;;;;;;;6.23;4.50;;;13.40;70.00;;;;;;4984991;28;20601;-60
2022/07/17 04:11:06;;;;;;;5.23;4.23;;;13.40;70.10;;;;;;4989064;28;20665;-62
2022/07/17 04:13:32;;;;;;;4.83;4.43;;;13.40;70.40;;;;;;4983208;28;20200;-61
2022/07/17 04:15:59;;;;;;;6.70;4.80;;;13.30;70.70;;;;;;4990109;28;20263;-61
2022/07/17 04:18:31;;;;;;;8.63;4.60;;;13.30;70.70;;;;;;4985975;28;20177;-61
2022/07/17 04:21:02;;;;;;;5.67;4.30;;;13.40;70.50;;;;;;4990650;28;20814;-61
2022/07/17 04:23:28;;;;;;;7.63;4.93;;;13.40;70.40;;;;;;4984485;28;20448;-60
2022/07/17 04:25:54;;;;;;;8.70;4.30;;;13.40;71.20;;;;;;4994443;28;20452;-60
2022/07/17 04:28:19;;;;;;;6.00;4.33;;;13.40;70.90;;;;;;4981618;28;20189;-60
2022/07/17 04:30:45;;;;;;;4.43;4.03;;;13.50;70.80;;;;;;4989701;28;20555;-60
2022/07/17 04:33:11;;;;;;;7.93;4.10;;;13.50;70.70;;;;;;4985807;28;20251;-60
2022/07/17 04:35:37;;;;;;;6.30;4.07;;;13.50;69.80;;;;;;4982919;28;20591;-61
2022/07/17 04:38:05;;;;;;;4.80;4.40;;;13.50;70.20;;;;;;4987160;28;20439;-60
2022/07/17 04:40:31;;;;;;;5.20;3.93;;;13.60;70.10;;;;;;4987794;28;20438;-60
2022/07/17 04:42:57;;;;;;;7.80;4.10;;;13.60;69.70;;;;;;4987824;28;20892;-61
2022/07/17 04:45:23;;;;;;;6.07;4.40;;;13.70;70.60;;;;;;4984285;28;20441;-64
2022/07/17 04:47:48;;;;;;;5.17;4.67;;;13.70;70.20;;;;;;4998198;28;20250;-61
2022/07/17 04:50:14;;;;;;;6.00;4.27;;;13.70;69.50;;;;;;4993770;28;20192;-60
2022/07/17 04:52:40;;;;;;;5.33;4.20;;;13.80;69.40;;;;;;4989266;28;20237;-61
2022/07/17 04:55:06;;;;;;;4.90;4.50;;;13.80;69.00;;;;;;4991049;28;20188;-60
2022/07/17 04:57:32;;;;;;;4.37;3.97;;;13.90;69.10;;;;;;4986379;28;20197;-61
2022/07/17 04:59:58;;;;;;;7.63;4.60;;;13.90;69.20;;;;;;4990073;28;20428;-60
2022/07/17 05:02:23;;;;;;;5.03;4.50;;;14.00;69.20;;;;;;4985204;28;20690;-60
2022/07/17 05:04:49;;;;;;;5.73;4.50;;;14.10;68.50;;;;;;4990425;28;20296;-60
2022/07/17 05:07:15;;;;;;;6.50;4.23;;;14.10;67.70;;;;;;4988283;28;20679;-60
2022/07/17 05:09:41;;;;;;;5.47;4.47;;;14.10;67.30;;;;;;4991630;28;20184;-61
2022/07/17 05:12:07;;;;;;;5.10;4.30;;;14.20;67.00;;;;;;4989329;28;20898;-61
2022/07/17 05:14:32;;;;;;;5.87;4.83;;;14.30;66.60;;;;;;4985185;28;20646;-60
2022/07/17 05:16:58;;;;;;;8.00;4.10;;;14.30;66.90;;;;;;4991896;28;20224;-60
2022/07/17 05:19:24;;;;;;;6.33;4.20;;;14.40;66.80;;;;;;4987453;28;20184;-60
2022/07/17 05:21:50;;;;;;;6.80;3.93;;;14.40;66.60;;;;;;4988782;28;20537;-61
2022/07/17 05:24:15;;;;;;;5.97;4.57;;;14.50;67.20;;;;;;4986503;28;20268;-60
2022/07/17 05:26:41;;;;;;;4.70;4.30;;;14.60;66.50;;;;;;5010937;28;20195;-60
2022/07/17 05:29:07;;;;;;;4.43;3.87;;;14.60;65.80;;;;;;5009374;28;20439;-60
2022/07/17 05:31:33;;;;;;;5.20;4.57;;;14.70;66.00;;;;;;4994243;28;20617;-61
2022/07/17 05:33:59;;;;;;;4.90;4.23;;;14.80;65.60;;;;;;4984729;28;20558;-60
2022/07/17 05:36:24;;;;;;;5.70;5.03;;;14.80;66.20;;;;;;4992800;28;20204;-60
2022/07/17 05:38:50;;;;;;;4.97;4.00;;;14.90;65.40;;;;;;4992116;28;20546;-60
2022/07/17 05:41:16;;;;;;;4.20;3.80;;;15.00;65.70;;;;;;4989076;28;20173;-60
2022/07/17 05:43:41;;;;;;;6.13;4.37;;;15.10;65.60;;;;;;4988797;28;20959;-60
2022/07/17 05:46:07;;;;;;;4.83;4.33;;;15.20;65.40;;;;;;4994764;28;20271;-60
2022/07/17 05:48:32;;;;;;;4.93;4.50;;;15.30;64.80;;;;;;4989062;28;20185;-60
2022/07/17 05:50:58;;;;;;;4.63;4.23;;;15.40;64.10;;;;;;4990007;28;20185;-60
2022/07/17 05:53:24;;;;;;;4.50;4.10;;;15.40;63.30;;;;;;4990833;28;20236;-60
2022/07/17 05:55:49;;;;;;;4.80;4.30;;;15.50;63.20;;;;;;4996862;28;20271;-59
2022/07/17 05:58:16;;;;;;;6.07;4.67;;;15.60;63.00;;;;;;4996222;28;20177;-60
2022/07/17 06:00:42;;;;;;;4.97;4.30;;;15.70;62.80;;;;;;4990873;28;20170;-61
2022/07/17 06:03:08;;;;;;;6.23;4.30;;;15.80;63.30;;;;;;4997435;28;20531;-61
2022/07/17 06:05:33;;;;;;;4.33;3.93;;;15.90;62.90;;;;;;4988265;28;20507;-60
2022/07/17 06:07:59;;;;;;;4.27;3.87;;;16.00;62.50;;;;;;4990151;28;20511;-60
2022/07/17 06:10:26;;;;;;;5.00;4.37;;;16.10;61.70;;;;;;4982986;28;20662;-60
2022/07/17 06:12:52;;;;;;;6.40;4.30;;;16.20;61.40;;;;;;5007147;28;20283;-60
2022/07/17 06:15:22;;;;;;;7.87;4.10;;;16.30;61.30;;;;;;4992396;28;20527;-60
2022/07/17 06:17:48;;;;;;;5.73;4.00;;;16.40;61.10;;;;;;4989441;28;20934;-60
2022/07/17 06:20:15;;;;;;;5.47;4.10;;;16.50;60.50;;;;;;4992316;28;20435;-61
2022/07/17 06:22:41;;;;;;;4.77;3.97;;;16.60;60.20;;;;;;4985901;28;20173;-61
2022/07/17 06:25:08;;;;;;;5.23;3.70;;;16.80;59.80;;;;;;4988731;28;20471;-60
2022/07/17 06:27:34;;;;;;;6.60;3.80;;;16.90;59.30;;;;;;4987322;28;21087;-60
2022/07/17 06:30:01;;;;;;;4.20;3.77;;;17.00;59.30;;;;;;4997619;28;21147;-61
2022/07/17 06:32:26;;;;;;;5.03;4.30;;;17.20;59.00;;;;;;4987157;28;20475;-60
2022/07/17 06:34:52;;;;;;;5.37;4.00;;;17.40;58.70;;;;;;4987084;28;20428;-60
2022/07/17 06:37:18;;;;;;;7.37;3.40;;;17.60;58.60;;;;;;4990725;28;20197;-61
2022/07/17 06:39:43;;;;;;;3.73;3.43;;;17.80;57.40;;;;;;4987024;28;20181;-60
2022/07/17 06:42:10;;;;;;;7.93;3.60;;;17.90;56.50;;;;;;4987816;28;20211;-60
2022/07/17 06:44:36;;;;;;;5.90;3.77;;;18.10;56.00;;;;;;4987442;28;20220;-60
2022/07/17 06:47:02;;;;;;;3.40;3.10;;;18.30;55.60;;;;;;4987920;28;20517;-60
2022/07/17 06:49:27;;;;;;;6.57;3.60;;;18.50;55.10;;;;;;4988625;28;20440;-60
2022/07/17 06:51:53;;;;;;;5.10;3.30;;;18.70;54.20;;;;;;4988557;28;20177;-60
2022/07/17 06:54:19;;;;;;;5.30;3.57;;;18.90;53.50;;;;;;4988572;28;20848;-60
2022/07/17 06:56:44;;;;;;;3.67;3.37;;;19.00;52.60;;;;;;4975122;28;20226;-60
2022/07/17 06:59:10;;;;;;;4.37;3.37;;;19.20;51.80;;;;;;4983061;28;20309;-60
2022/07/17 07:01:37;;;;;;;4.20;3.80;;;19.40;51.80;;;;;;4987951;28;20725;-60
2022/07/17 07:04:04;;;;;;;7.50;5.83;;;19.50;51.20;;;;;;4981407;28;20177;-60
2022/07/17 07:06:30;;;;;;;3.63;3.30;;;19.70;51.00;;;;;;4989761;28;20483;-60
2022/07/17 07:08:57;;;;;;;4.87;3.60;;;19.80;50.90;;;;;;4989307;28;20407;-60
2022/07/17 07:11:22;;;;;;;3.73;3.30;;;19.90;50.70;;;;;;4995314;28;20427;-60
2022/07/17 07:13:48;;;;;;;6.63;3.03;;;20.00;50.50;;;;;;4975974;28;20526;-61
2022/07/17 07:16:14;;;;;;;3.87;3.10;;;20.10;49.60;;;;;;4981416;28;20198;-60
2022/07/17 07:18:39;;;;;;;5.33;2.80;;;20.30;49.10;;;;;;4987244;28;20783;-60
2022/07/17 07:21:05;;;;;;;4.10;2.80;;;20.40;48.80;;;;;;4987681;28;20173;-60
2022/07/17 07:23:30;;;;;;;4.40;3.17;;;20.50;48.70;;;;;;4986709;28;20195;-60
2022/07/17 07:25:56;;;;;;;3.20;2.53;;;20.60;48.50;;;;;;4990335;28;20208;-60
2022/07/17 07:28:22;;;;;;;8.47;3.27;;;20.80;48.40;;;;;;4987027;28;20911;-61
2022/07/17 07:30:47;;;;;;;4.67;3.03;;;20.80;47.90;;;;;;4979271;28;20698;-61
2022/07/17 07:33:13;;;;;;;3.20;2.90;;;20.90;47.80;;;;;;4987185;28;20204;-61
2022/07/17 07:35:40;;;;;;;3.63;3.27;;;21.00;47.70;;;;;;4982514;28;20661;-61
2022/07/17 07:38:06;;;;;;;8.87;3.90;;;21.10;47.50;;;;;;4984700;28;20197;-63
2022/07/17 07:40:32;;;;;;;3.80;2.87;;;21.20;47.10;;;;;;4975143;28;20537;-62
2022/07/17 07:42:57;;;;;;;8.80;3.20;;;21.30;46.70;;;;;;4981936;28;20173;-57
2022/07/17 07:45:23;;;;;;;5.10;2.97;;;21.40;46.30;;;;;;4980838;28;20863;-61
2022/07/17 07:47:50;;;;;;;3.70;3.03;;;21.50;46.40;;;;;;4981716;28;20173;-60
2022/07/17 07:50:16;;;;;;;5.37;3.30;;;21.70;46.40;;;;;;4969414;28;20277;-60
2022/07/17 07:52:42;;;;;;;4.10;2.70;;;21.80;46.20;;;;;;4981679;28;20951;-60
2022/07/17 07:55:09;;;;;;;4.93;3.27;;;21.80;46.00;;;;;;4982645;28;20451;-60
2022/07/17 07:57:35;;;;;;;2.70;2.20;;;21.90;45.50;;;;;;4989175;28;20586;-54
2022/07/17 08:00:01;;;;;;;3.10;2.77;;;21.90;45.00;;;;;;4981201;28;20436;-59
2022/07/17 08:02:27;;;;;;;3.90;3.13;;;22.00;45.30;;;;;;4978468;28;20428;-58
2022/07/17 08:04:52;;;;;;;4.20;3.30;;;22.10;45.40;;;;;;4977065;28;20296;-60
2022/07/17 08:07:18;;;;;;;3.67;2.67;;;22.10;45.30;;;;;;4986553;28;20307;-61
2022/07/17 08:09:44;;;;;;;3.50;2.80;;;22.20;44.90;;;;;;4984383;28;20197;-59
2022/07/17 08:12:09;;;;;;;5.13;3.07;;;22.30;44.80;;;;;;4983897;28;20177;-60
2022/07/17 08:14:35;;;;;;;3.57;3.10;;;22.40;45.20;;;;;;4979437;28;20178;-60
2022/07/17 08:17:01;;;;;;;4.10;2.63;;;22.40;44.70;;;;;;4978497;28;20650;-60
2022/07/17 08:19:26;;;;;;;3.67;3.00;;;22.50;44.70;;;;;;4986542;28;20271;-59
2022/07/17 08:21:52;;;;;;;8.83;2.70;;;22.50;44.60;;;;;;4989147;28;20654;-59
2022/07/17 08:24:17;;;;;;;2.93;2.60;;;22.60;44.60;;;;;;4981334;28;20220;-59
2022/07/17 08:26:43;;;;;;;7.03;2.47;;;22.70;43.90;;;;;;4994742;28;20219;-61
2022/07/17 08:29:09;;;;;;;6.13;2.23;;;22.70;43.90;;;;;;4988708;28;20185;-62
2022/07/17 08:31:34;;;;;;;6.00;2.63;;;22.80;43.90;;;;;;4984344;28;20225;-63
2022/07/17 08:34:01;;;;;;;3.63;2.43;;;22.90;43.20;;;;;;4992982;28;20208;-62
2022/07/17 08:36:26;;;;;;;4.40;2.97;;;23.00;43.00;;;;;;4991841;28;20197;-63
2022/07/17 08:38:52;;;;;;;2.83;2.50;;;23.10;43.20;;;;;;4981134;28;20433;-63
2022/07/17 08:41:21;;;;;;;3.53;2.70;;;23.20;43.20;;;;;;4987266;28;20542;-63
2022/07/17 08:43:48;;;;;;;3.90;2.67;;;23.20;42.80;;;;;;4988593;28;20683;-62
2022/07/17 08:46:16;;;;;;;5.93;2.50;;;23.30;42.20;;;;;;4986982;28;20467;-62
2022/07/17 08:48:44;;;;;;;4.47;2.60;;;23.40;41.50;;;;;;4990021;28;20523;-62
2022/07/17 08:51:11;;;;;;;4.57;2.67;;;23.50;41.70;;;;;;4988844;28;20473;-62
2022/07/17 08:53:37;;;;;;;3.20;2.63;;;23.50;41.80;;;;;;4990273;28;20983;-62
2022/07/17 08:56:03;;;;;;;6.67;2.60;;;23.60;41.30;;;;;;4989089;28;20456;-62
2022/07/17 08:58:29;;;;;;;2.77;2.57;;;23.70;41.40;;;;;;4985270;28;20598;-63
2022/07/17 09:00:55;;;;;;;3.13;2.60;;;23.80;40.80;;;;;;4989058;28;20428;-63
2022/07/17 09:03:23;;;;;;;5.60;2.30;;;23.90;41.00;;;;;;4986010;28;20447;-63
2022/07/17 09:05:48;;;;;;;4.93;2.47;;;23.90;40.20;;;;;;4990274;28;20208;-62
2022/07/17 09:08:20;;;;;;;7.27;2.77;;;24.00;40.30;;;;;;4988804;28;20435;-63
2022/07/17 09:10:48;;;;;;;4.63;2.30;;;24.10;40.20;;;;;;4987001;28;20197;-62
2022/07/17 09:13:22;;;;;;;2.70;2.30;;;24.20;39.80;;;;;;4983508;28;20459;-62
2022/07/17 09:15:51;;;;;;;3.60;2.40;;;24.30;39.60;;;;;;4990555;28;20521;-63
2022/07/17 09:18:17;;;;;;;3.90;2.63;;;24.40;39.20;;;;;;4983562;28;20462;-63
2022/07/17 09:20:55;;;;;;;2.77;2.40;;;24.50;39.60;;;;;;4989297;28;20455;-63
2022/07/17 09:23:22;;;;;;;4.03;2.60;;;24.60;39.90;;;;;;4987270;28;20467;-63
2022/07/17 09:25:50;;;;;;;3.37;2.97;;;24.60;39.10;;;;;;4986916;28;20453;-62
2022/07/17 09:28:17;;;;;;;3.80;3.23;;;24.70;39.70;;;;;;4986770;28;20440;-62
2022/07/17 09:30:47;;;;;;;3.20;2.83;;;24.80;39.50;;;;;;4987488;28;20519;-61
2022/07/17 09:33:33;;;;;;;3.17;2.60;;;24.80;38.70;;;;;;4982136;28;20974;-62
2022/07/17 09:36:09;;;;;;;3.73;2.57;;;24.90;38.60;;;;;;4995791;28;20463;-60
2022/07/17 09:38:37;;;;;;;5.70;3.00;;;25.00;39.50;;;;;;4989793;28;20422;-59
2022/07/17 09:41:15;;;;;;;2.40;2.20;;;25.10;39.30;;;;;;4989762;28;20428;-59
2022/07/17 09:43:48;;;;;;;3.40;3.00;;;25.20;38.90;;;;;;4988677;28;20435;-59
2022/07/17 09:46:17;;;;;;;3.03;2.37;;;25.30;38.40;;;;;;4988656;28;20975;-59
2022/07/17 09:48:48;;;;;;;3.47;2.77;;;25.40;37.50;;;;;;4986668;28;20448;-59
2022/07/17 09:51:19;;;;;;;2.33;2.23;;;25.40;37.40;;;;;;4985663;28;20993;-58
2022/07/17 09:53:47;;;;;;;2.97;2.40;;;25.50;37.30;;;;;;4984906;28;20467;-59
2022/07/17 09:56:16;;;;;;;2.77;2.43;;;25.60;37.30;;;;;;4990635;28;20460;-59
2022/07/17 09:58:51;;;;;;;4.07;2.80;;;25.70;37.70;;;;;;4989077;28;20428;-58
2022/07/17 10:01:17;;;;;;;3.63;2.70;;;25.70;36.60;;;;;;4986857;28;20436;-59
2022/07/17 10:03:44;;;;;;;4.13;2.50;;;25.90;37.50;;;;;;4987539;28;20449;-61
2022/07/17 10:06:11;;;;;;;5.20;2.50;;;25.90;37.60;;;;;;4987571;28;20455;-59
2022/07/17 10:08:38;;;;;;;6.43;2.40;;;26.10;37.80;;;;;;4986120;28;20466;-59
2022/07/17 10:11:06;;;;;;;4.43;2.73;;;26.10;37.50;;;;;;4980945;28;20809;-59
2022/07/17 10:13:32;;;;;;;3.10;2.50;;;26.30;37.80;;;;;;4982064;28;20550;-60
2022/07/17 10:15:58;;;;;;;6.20;2.90;;;26.40;37.30;;;;;;4986057;28;20584;-60
2022/07/17 10:18:43;;;;;;;3.40;3.10;;;26.50;36.70;;;;;;4986631;28;20232;-61
2022/07/17 10:21:14;;;;;;;2.63;2.43;;;26.60;36.10;;;;;;4986495;28;20423;-62
2022/07/17 10:23:41;;;;;;;3.10;2.63;;;26.70;36.50;;;;;;4982405;28;20435;-61
2022/07/17 10:26:06;;;;;;;2.83;2.53;;;26.80;36.90;;;;;;4982312;28;20458;-62
2022/07/17 10:28:58;;;;;;;3.30;2.73;;;26.90;36.20;;;;;;4987584;28;20436;-62
2022/07/17 10:31:26;;;;;;;4.53;2.87;;;27.00;35.70;;;;;;4983701;28;20276;-62
2022/07/17 10:33:58;;;;;;;3.67;2.57;;;27.10;35.80;;;;;;4984961;28;22059;-60
2022/07/17 10:36:37;;;;;;;4.60;3.07;;;27.20;35.20;;;;;;4980822;28;20474;-62
2022/07/17 10:39:17;;;;;;;4.90;3.23;;;27.30;35.50;;;;;;4986525;28;20269;-63
2022/07/17 10:41:58;;;;;;;12.00;5.23;;;27.40;35.70;;;;;;4983603;28;20431;-61
2022/07/17 10:44:29;;;;;;;6.40;4.40;;;27.50;35.00;;;;;;4986495;28;20187;-61
2022/07/17 10:46:56;;;;;;;4.57;2.70;;;27.60;35.10;;;;;;4986402;28;20200;-62
2022/07/17 10:49:25;;;;;;;2.53;2.33;;;27.70;35.50;;;;;;4982422;28;20808;-63
2022/07/17 10:51:52;;;;;;;4.53;3.13;;;27.70;36.20;;;;;;4982310;28;20268;-62
2022/07/17 10:54:20;;;;;;;3.50;2.80;;;27.80;35.10;;;;;;4980199;28;20560;-61
2022/07/17 10:56:48;;;;;;;6.43;3.27;;;27.90;34.80;;;;;;4983373;28;20223;-62
2022/07/17 10:59:14;;;;;;;3.17;2.47;;;28.00;34.00;;;;;;4992647;28;20174;-63
2022/07/17 11:01:40;;;;;;;2.70;2.50;;;28.10;33.50;;;;;;4980980;28;20227;-63
2022/07/17 11:04:06;;;;;;;2.73;2.53;;;28.20;34.00;;;;;;4985042;28;20180;-63
2022/07/17 11:06:33;;;;;;;4.93;2.53;;;28.20;32.70;;;;;;4984105;28;20219;-62
2022/07/17 11:09:11;;;;;;;4.00;2.90;;;28.10;34.00;;;;;;4984391;28;20208;-61
2022/07/17 11:11:47;;;;;;;4.10;2.60;;;28.20;34.20;;;;;;4982841;28;20574;-62
2022/07/17 11:14:17;;;;;;;9.40;2.27;;;28.40;32.80;;;;;;4981603;28;20586;-62
2022/07/17 11:16:52;;;;;;;3.87;2.50;;;28.50;33.60;;;;;;4983815;28;20216;-63
2022/07/17 11:19:30;;;;;;;4.97;2.70;;;28.60;33.50;;;;;;4982007;28;20719;-62
2022/07/17 11:21:57;;;;;;;4.38;3.00;;;28.70;32.70;;;;;;4984294;28;20331;-61
2022/07/17 11:24:25;;;;;;;10.20;2.60;;;28.80;32.20;;;;;;4984685;28;20185;-61
2022/07/17 11:26:51;;;;;;;12.35;2.70;;;28.80;32.60;;;;;;4980456;28;20196;-62
2022/07/17 11:29:18;;;;;;;3.77;2.70;;;28.80;31.80;;;;;;4977736;28;20186;-61
2022/07/17 11:31:44;;;;;;;4.97;2.80;;;28.80;32.10;;;;;;4986129;28;20224;-61
2022/07/17 11:34:11;;;;;;;2.22;2.03;;;28.80;32.70;;;;;;4982426;28;20211;-61
2022/07/17 11:36:41;;;;;;;3.13;2.63;;;28.90;32.90;;;;;;4982574;28;20200;-61
2022/07/17 11:39:11;;;;;;;4.40;3.00;;;29.10;33.40;;;;;;4977008;28;20169;-60
2022/07/17 11:41:46;;;;;;;3.17;2.50;;;29.20;33.80;;;;;;4979341;28;20252;-62
2022/07/17 11:44:13;;;;;;;7.43;2.53;;;29.40;33.90;;;;;;4979257;28;21059;-62
2022/07/17 11:46:41;;;;;;;3.03;2.83;;;29.50;33.10;;;;;;4976993;28;20639;-64
2022/07/17 11:49:07;;;;;;;4.55;2.72;;;29.60;32.70;;;;;;4981084;28;20275;-61
2022/07/17 11:51:43;;;;;;;5.43;2.60;;;29.80;32.40;;;;;;4978210;28;20207;-63
2022/07/17 11:54:14;;;;;;;3.10;2.75;;;29.70;31.00;;;;;;4975351;28;20224;-63
2022/07/17 11:56:41;;;;;;;2.55;2.35;;;29.70;30.90;;;;;;4977783;28;20220;-62
2022/07/17 11:59:08;;;;;;;4.32;2.50;;;29.60;31.10;;;;;;4977009;28;20598;-63
2022/07/17 12:01:44;;;;;;;2.60;2.30;;;29.70;31.20;;;;;;4979920;28;20183;-63
2022/07/17 12:04:13;;;;;;;2.95;2.75;;;29.80;31.30;;;;;;4976240;28;20193;-62
2022/07/17 12:06:38;;;;;;;9.77;4.32;;;29.90;29.60;;;;;;4978291;28;20209;-62
2022/07/17 12:09:07;;;;;;;3.45;3.13;;;29.80;30.30;;;;;;4978418;28;20177;-62
2022/07/17 12:11:44;;;;;;;3.20;2.58;;;29.90;32.40;;;;;;4978738;28;20272;-62
2022/07/17 12:14:10;;;;;;;13.90;5.22;;;30.00;33.20;;;;;;4980194;28;20205;-59
2022/07/17 12:16:37;;;;;;;5.32;3.10;;;30.20;31.10;;;;;;4974633;28;20760;-60
2022/07/17 12:19:11;;;;;;;25.95;10.65;;;30.30;30.60;;;;;;4978812;28;20177;-59
2022/07/17 12:21:55;;;;;;;54.78;21.38;;;30.40;30.90;;;;;;4982272;28;20229;-59
2022/07/17 12:24:42;;;;;;;21.95;8.38;;;30.60;31.20;;;;;;4994463;28;20187;-62
2022/07/17 12:27:10;;;;;;;3.10;2.38;;;30.80;30.80;;;;;;4980767;28;20213;-62
2022/07/17 12:29:36;;;;;;;5.03;2.63;;;30.90;30.00;;;;;;4978019;28;20186;-63
2022/07/17 12:32:08;;;;;;;4.70;3.08;;;31.00;29.10;;;;;;4982623;28;20193;-63
2022/07/17 12:34:36;;;;;;;11.40;5.05;;;31.10;29.30;;;;;;4978328;28;20227;-63
2022/07/17 12:37:03;;;;;;;4.40;2.75;;;31.10;28.70;;;;;;4980014;28;20220;-62
2022/07/17 12:39:29;;;;;;;9.50;4.25;;;31.10;28.60;;;;;;4978901;28;20183;-63
2022/07/17 12:41:54;;;;;;;3.22;2.90;;;31.10;28.70;;;;;;4974521;28;20191;-63
2022/07/17 12:44:20;;;;;;;60.28;21.95;;;31.30;29.40;;;;;;4964515;28;20192;-59